Time;durP1;ratioP1;P1;durP2;ratioP2;P2;SDS_P1;SDS_P2;PMS_P1;PMS_P2;Temp;Humidity;BMP_temperature;BMP_pressure;BME280_temperature;BME280_humidity;BME280_pressure;Samples;Min_cycle;Max_cycle;Signal;HPM_P1;HPM_P2
2021/04/17 00:01:34;;;;;;;0.32;0.32;;;7.80;99.90;;;;;;5052847;28;20155;-80
2021/04/17 00:04:01;;;;;;;0.45;0.45;;;7.70;99.90;;;;;;5052760;28;20183;-78
2021/04/17 00:06:27;;;;;;;0.30;0.30;;;7.70;99.90;;;;;;5052576;28;20227;-78
2021/04/17 00:08:53;;;;;;;13.25;0.73;;;7.70;99.90;;;;;;5053227;28;20228;-78
2021/04/17 00:11:19;;;;;;;0.30;0.30;;;7.80;99.90;;;;;;5052642;28;20171;-78
2021/04/17 00:13:45;;;;;;;0.30;0.30;;;8.00;99.90;;;;;;5052719;28;20170;-78
2021/04/17 00:16:10;;;;;;;0.35;0.35;;;7.80;99.90;;;;;;5052716;28;20225;-76
2021/04/17 00:18:36;;;;;;;0.20;0.20;;;7.90;99.90;;;;;;5057389;28;20198;-75
2021/04/17 00:21:02;;;;;;;1.33;1.33;;;7.90;99.90;;;;;;5073426;28;20178;-75
2021/04/17 00:23:28;;;;;;;0.60;0.60;;;7.80;99.90;;;;;;5072648;28;20171;-77
2021/04/17 00:25:53;;;;;;;0.30;0.30;;;7.90;99.90;;;;;;5072812;28;20183;-77
2021/04/17 00:28:19;;;;;;;0.20;0.20;;;7.70;99.90;;;;;;5065192;28;20203;-78
2021/04/17 00:30:45;;;;;;;0.60;0.57;;;7.90;99.90;;;;;;5053525;28;20168;-78
2021/04/17 00:33:10;;;;;;;0.73;0.73;;;8.00;99.90;;;;;;5053115;28;20209;-78
2021/04/17 00:35:37;;;;;;;1.00;0.90;;;8.00;99.90;;;;;;5051425;28;20621;-78
2021/04/17 00:38:03;;;;;;;0.22;0.22;;;7.80;99.90;;;;;;5052353;28;20601;-78
2021/04/17 00:40:28;;;;;;;0.30;0.30;;;7.70;99.90;;;;;;5052465;28;20171;-78
2021/04/17 00:42:54;;;;;;;0.20;0.20;;;7.40;99.90;;;;;;5052523;28;20164;-78
2021/04/17 00:45:19;;;;;;;0.20;0.20;;;7.40;99.90;;;;;;5052480;28;20171;-77
2021/04/17 00:47:45;;;;;;;0.20;0.20;;;7.60;99.90;;;;;;5052437;28;20195;-78
2021/04/17 00:50:11;;;;;;;1.60;1.50;;;7.60;99.90;;;;;;5053356;28;20190;-77
2021/04/17 00:52:39;;;;;;;0.30;0.30;;;7.50;99.90;;;;;;5056277;28;20164;-76
2021/04/17 00:55:06;;;;;;;0.85;0.85;;;7.50;99.90;;;;;;5054728;28;20202;-77
2021/04/17 00:57:32;;;;;;;0.20;0.20;;;7.10;99.90;;;;;;5056306;28;20206;-77
2021/04/17 00:59:57;;;;;;;5.28;0.77;;;7.10;99.90;;;;;;5054542;28;20163;-77
2021/04/17 01:02:31;;;;;;;1.38;1.05;;;7.30;99.90;;;;;;5054674;28;20277;-78
2021/04/17 01:04:59;;;;;;;0.20;0.20;;;7.30;99.90;;;;;;5055765;28;20211;-77
2021/04/17 01:07:33;;;;;;;0.57;0.57;;;7.30;99.90;;;;;;5055645;28;20321;-78
2021/04/17 01:10:02;;;;;;;0.20;0.20;;;7.40;99.90;;;;;;5055930;28;20258;-78
2021/04/17 01:12:32;;;;;;;0.52;0.52;;;7.50;99.90;;;;;;5055639;28;20155;-76
2021/04/17 01:14:59;;;;;;;0.60;0.60;;;7.40;99.90;;;;;;5055536;28;20171;-76
2021/04/17 01:17:25;;;;;;;0.47;0.47;;;7.40;99.90;;;;;;5054147;28;20205;-76
2021/04/17 01:20:18;;;;;;;0.50;0.50;;;7.30;99.90;;;;;;5054233;28;20163;-78
2021/04/17 01:22:53;;;;;;;0.95;0.95;;;7.20;99.90;;;;;;5055592;28;20151;-78
2021/04/17 01:25:21;;;;;;;0.68;0.68;;;7.20;99.90;;;;;;5054287;28;20221;-76
2021/04/17 01:27:46;;;;;;;1.23;1.20;;;7.10;99.90;;;;;;5055282;28;20274;-77
2021/04/17 01:30:18;;;;;;;0.50;0.50;;;7.20;99.90;;;;;;5054401;28;20262;-76
2021/04/17 01:32:44;;;;;;;0.73;0.73;;;7.40;99.90;;;;;;5055295;28;20533;-76
2021/04/17 01:35:14;;;;;;;0.47;0.47;;;7.40;99.90;;;;;;5055515;28;20246;-76
2021/04/17 01:37:51;;;;;;;1.00;0.82;;;7.40;99.90;;;;;;5055170;28;20199;-76
2021/04/17 01:40:23;;;;;;;0.63;0.63;;;7.40;99.90;;;;;;5055229;28;20175;-77
2021/04/17 01:42:51;;;;;;;0.60;0.60;;;7.50;99.90;;;;;;5055164;28;20155;-78
2021/04/17 01:45:21;;;;;;;1.15;1.00;;;7.30;99.90;;;;;;5055079;28;20212;-76
2021/04/17 01:47:49;;;;;;;18.88;1.15;;;7.30;99.90;;;;;;5055075;28;20410;-75
2021/04/17 01:50:17;;;;;;;0.35;0.35;;;7.20;99.90;;;;;;5054923;28;20213;-76
2021/04/17 01:52:45;;;;;;;0.38;0.38;;;7.00;99.90;;;;;;5055078;28;20167;-76
2021/04/17 01:55:12;;;;;;;0.25;0.25;;;7.00;99.90;;;;;;5054854;28;20163;-75
2021/04/17 01:57:39;;;;;;;0.20;0.20;;;7.00;99.90;;;;;;5054713;28;20207;-76
2021/04/17 02:00:07;;;;;;;0.50;0.50;;;7.00;99.90;;;;;;5054738;28;20182;-75
2021/04/17 02:02:33;;;;;;;1.08;0.70;;;7.10;99.90;;;;;;5054079;28;20171;-77
2021/04/17 02:04:59;;;;;;;0.38;0.38;;;7.20;99.90;;;;;;5054638;28;20299;-76
2021/04/17 02:07:24;;;;;;;0.65;0.65;;;7.20;99.90;;;;;;5054553;28;20278;-76
2021/04/17 02:09:50;;;;;;;0.28;0.28;;;7.10;99.90;;;;;;5054679;28;20638;-75
2021/04/17 02:12:16;;;;;;;0.20;0.20;;;6.80;99.90;;;;;;5054669;28;20155;-75
2021/04/17 02:14:41;;;;;;;1.38;1.25;;;6.60;99.90;;;;;;5054437;28;20171;-77
2021/04/17 02:17:25;;;;;;;1.08;0.85;;;6.60;99.90;;;;;;5054350;28;20350;-76
2021/04/17 02:20:00;;;;;;;0.40;0.40;;;6.70;99.90;;;;;;5054419;28;20490;-76
2021/04/17 02:22:26;;;;;;;0.90;0.90;;;6.80;99.90;;;;;;5053116;28;20253;-75
2021/04/17 02:24:53;;;;;;;0.25;0.25;;;6.80;99.90;;;;;;5054454;28;20159;-76
2021/04/17 02:27:19;;;;;;;1.33;0.73;;;6.80;99.90;;;;;;5054261;28;20213;-76
2021/04/17 02:29:49;;;;;;;0.55;0.40;;;6.70;99.90;;;;;;5054209;28;20155;-76
2021/04/17 02:32:16;;;;;;;1.13;1.10;;;6.70;99.90;;;;;;5054191;28;20198;-76
2021/04/17 02:34:42;;;;;;;0.68;0.68;;;6.70;99.90;;;;;;5054161;28;20187;-76
2021/04/17 02:37:09;;;;;;;0.43;0.43;;;6.70;99.90;;;;;;5054006;28;20207;-75
2021/04/17 02:39:35;;;;;;;0.40;0.40;;;6.70;99.90;;;;;;5052880;28;20190;-76
2021/04/17 02:42:01;;;;;;;1.35;0.90;;;6.50;99.90;;;;;;5053919;28;20195;-77
2021/04/17 02:44:27;;;;;;;0.82;0.82;;;6.60;99.90;;;;;;5054345;28;20527;-77
2021/04/17 02:46:52;;;;;;;1.48;1.38;;;6.50;99.90;;;;;;5053733;28;20541;-76
2021/04/17 02:49:18;;;;;;;7.20;2.13;;;6.60;99.90;;;;;;5053884;28;20175;-76
2021/04/17 02:51:43;;;;;;;0.65;0.65;;;6.60;99.90;;;;;;5053821;28;20166;-76
2021/04/17 02:54:10;;;;;;;1.33;0.73;;;6.50;99.90;;;;;;5053673;28;20529;-76
2021/04/17 02:56:35;;;;;;;3.53;0.65;;;6.50;99.90;;;;;;5052425;28;20187;-77
2021/04/17 02:59:01;;;;;;;0.50;0.47;;;6.40;99.90;;;;;;5053588;28;20282;-75
2021/04/17 03:01:27;;;;;;;0.45;0.45;;;6.40;99.90;;;;;;5053702;28;20530;-75
2021/04/17 03:03:52;;;;;;;2.47;1.55;;;6.50;99.90;;;;;;5052299;28;20183;-76
2021/04/17 03:06:18;;;;;;;8.10;2.58;;;6.50;99.90;;;;;;5053161;28;20226;-76
2021/04/17 03:08:43;;;;;;;0.47;0.47;;;6.60;99.90;;;;;;5052281;28;20237;-76
2021/04/17 03:11:09;;;;;;;0.65;0.57;;;6.50;99.90;;;;;;5053387;28;20236;-76
2021/04/17 03:13:35;;;;;;;0.75;0.75;;;6.30;99.90;;;;;;5052331;28;20248;-77
2021/04/17 03:16:01;;;;;;;0.63;0.63;;;6.40;99.90;;;;;;5053274;28;20183;-76
2021/04/17 03:18:26;;;;;;;0.68;0.68;;;6.40;99.90;;;;;;5053203;28;20195;-76
2021/04/17 03:20:52;;;;;;;0.60;0.60;;;6.50;99.90;;;;;;5053205;28;20216;-75
2021/04/17 03:23:18;;;;;;;1.58;1.05;;;6.60;99.90;;;;;;5051887;28;20634;-76
2021/04/17 03:25:43;;;;;;;0.50;0.50;;;6.60;99.90;;;;;;5053197;28;20190;-76
2021/04/17 03:28:09;;;;;;;1.25;0.65;;;6.50;99.90;;;;;;5053184;28;20570;-76
2021/04/17 03:30:35;;;;;;;0.60;0.60;;;6.40;99.90;;;;;;5053179;28;20195;-76
2021/04/17 03:33:02;;;;;;;2.00;0.98;;;6.10;99.90;;;;;;5053197;28;20159;-75
2021/04/17 03:35:29;;;;;;;1.20;1.20;;;6.00;99.90;;;;;;5051919;28;20653;-77
2021/04/17 03:37:55;;;;;;;0.30;0.30;;;6.20;99.90;;;;;;5053012;28;20206;-77
2021/04/17 03:40:20;;;;;;;1.95;1.85;;;6.30;99.90;;;;;;5053060;28;20534;-77
2021/04/17 03:42:47;;;;;;;1.00;0.75;;;6.30;99.90;;;;;;5053098;28;20155;-77
2021/04/17 03:45:13;;;;;;;0.20;0.20;;;6.30;99.90;;;;;;5051770;28;20163;-77
2021/04/17 03:47:39;;;;;;;0.40;0.40;;;6.30;99.90;;;;;;5052883;28;20187;-78
2021/04/17 03:50:07;;;;;;;4.45;0.60;;;6.20;99.90;;;;;;5052911;28;20197;-77
2021/04/17 03:52:34;;;;;;;0.47;0.47;;;6.20;99.90;;;;;;5051732;28;20156;-77
2021/04/17 03:54:59;;;;;;;4.15;1.02;;;6.00;99.90;;;;;;5052761;28;20174;-78
2021/04/17 03:57:25;;;;;;;0.43;0.43;;;6.00;99.90;;;;;;5052736;28;20195;-77
2021/04/17 03:59:51;;;;;;;2.28;2.17;;;6.10;99.90;;;;;;5052882;28;20165;-77
2021/04/17 04:02:17;;;;;;;0.32;0.32;;;6.20;99.90;;;;;;5053039;28;20159;-78
2021/04/17 04:04:42;;;;;;;21.83;1.50;;;6.10;99.90;;;;;;5052956;28;20670;-78
2021/04/17 04:07:08;;;;;;;1.00;1.00;;;6.00;99.90;;;;;;5052855;28;20654;-78
2021/04/17 04:09:34;;;;;;;1.00;1.00;;;6.00;99.90;;;;;;5052929;28;20246;-77
2021/04/17 04:12:00;;;;;;;0.45;0.45;;;6.00;99.90;;;;;;5052787;28;20198;-76
2021/04/17 04:14:25;;;;;;;0.43;0.43;;;6.10;99.90;;;;;;5052939;28;20171;-77
2021/04/17 04:16:51;;;;;;;1.88;1.70;;;6.20;99.90;;;;;;5052644;28;20236;-77
2021/04/17 04:19:16;;;;;;;0.30;0.30;;;6.30;99.90;;;;;;5052610;28;20191;-77
2021/04/17 04:21:42;;;;;;;0.30;0.30;;;6.30;99.90;;;;;;5052536;28;20163;-78
2021/04/17 04:24:09;;;;;;;0.28;0.28;;;6.00;99.90;;;;;;5052533;28;20168;-78
2021/04/17 04:26:35;;;;;;;0.85;0.85;;;5.90;99.90;;;;;;5055797;28;20670;-77
2021/04/17 04:29:02;;;;;;;0.28;0.28;;;5.90;99.90;;;;;;5056562;28;20155;-77
2021/04/17 04:31:27;;;;;;;0.55;0.55;;;5.90;99.90;;;;;;5056464;28;20167;-77
2021/04/17 04:33:53;;;;;;;0.22;0.22;;;6.00;99.90;;;;;;5055364;28;20691;-77
2021/04/17 04:36:18;;;;;;;0.38;0.38;;;5.90;99.90;;;;;;5056163;28;20202;-77
2021/04/17 04:38:44;;;;;;;0.20;0.20;;;6.00;99.90;;;;;;5056135;28;20290;-77
2021/04/17 04:41:09;;;;;;;0.65;0.65;;;6.00;99.90;;;;;;5056102;28;20171;-77
2021/04/17 04:43:35;;;;;;;0.73;0.73;;;6.20;99.90;;;;;;5056303;28;20173;-76
2021/04/17 04:46:01;;;;;;;0.38;0.38;;;6.00;99.90;;;;;;5054857;28;20236;-76
2021/04/17 04:48:26;;;;;;;0.30;0.30;;;5.90;99.90;;;;;;5056188;28;20179;-77
2021/04/17 04:50:52;;;;;;;1.30;1.20;;;6.10;99.90;;;;;;5056018;28;20666;-76
2021/04/17 04:53:19;;;;;;;0.35;0.35;;;6.20;99.90;;;;;;5054726;28;20160;-77
2021/04/17 04:55:44;;;;;;;0.20;0.20;;;6.10;99.90;;;;;;5055938;28;20178;-76
2021/04/17 04:58:10;;;;;;;3.90;2.42;;;6.10;99.90;;;;;;5055722;28;20213;-76
2021/04/17 05:00:35;;;;;;;0.95;0.95;;;6.30;99.90;;;;;;5055852;28;20163;-76
2021/04/17 05:03:01;;;;;;;0.47;0.47;;;6.30;99.90;;;;;;5055817;28;20238;-77
2021/04/17 05:05:27;;;;;;;0.25;0.25;;;6.50;99.90;;;;;;5055663;28;20222;-76
2021/04/17 05:07:52;;;;;;;0.55;0.55;;;6.50;99.90;;;;;;5055755;28;20168;-76
2021/04/17 05:10:18;;;;;;;0.47;0.47;;;6.50;99.90;;;;;;5055712;28;20175;-76
2021/04/17 05:12:43;;;;;;;1.08;0.77;;;6.40;99.90;;;;;;5055623;28;20148;-77
2021/04/17 05:15:09;;;;;;;0.52;0.47;;;6.40;99.90;;;;;;5055589;28;20171;-76
2021/04/17 05:17:35;;;;;;;1.17;1.00;;;6.40;99.90;;;;;;5055442;28;20256;-76
2021/04/17 05:20:01;;;;;;;0.47;0.47;;;6.40;99.90;;;;;;5055442;28;20518;-76
2021/04/17 05:22:26;;;;;;;0.68;0.65;;;6.40;99.90;;;;;;5055684;28;20600;-77
2021/04/17 05:24:52;;;;;;;0.55;0.55;;;6.50;99.90;;;;;;5055301;28;20217;-76
2021/04/17 05:27:18;;;;;;;0.40;0.40;;;6.50;99.90;;;;;;5055387;28;20218;-76
2021/04/17 05:29:44;;;;;;;0.30;0.30;;;6.40;99.90;;;;;;5055097;28;20619;-78
2021/04/17 05:32:10;;;;;;;0.40;0.40;;;6.30;99.90;;;;;;5055152;28;20171;-77
2021/04/17 05:34:36;;;;;;;0.52;0.52;;;6.50;99.90;;;;;;5055293;28;20167;-76
2021/04/17 05:37:02;;;;;;;2.22;2.03;;;6.60;99.90;;;;;;5053944;28;20780;-76
2021/04/17 05:39:28;;;;;;;0.90;0.90;;;6.30;99.90;;;;;;5055168;28;20227;-77
2021/04/17 05:41:54;;;;;;;1.35;1.20;;;6.60;99.90;;;;;;5054867;28;20171;-77
2021/04/17 05:44:20;;;;;;;0.50;0.50;;;6.70;99.90;;;;;;5054936;28;20657;-77
2021/04/17 05:46:46;;;;;;;0.55;0.55;;;6.70;99.90;;;;;;5055185;28;20183;-77
2021/04/17 05:49:12;;;;;;;0.95;0.88;;;6.50;99.90;;;;;;5054743;28;20158;-77
2021/04/17 05:51:40;;;;;;;0.28;0.28;;;6.40;99.90;;;;;;5054969;28;20327;-77
2021/04/17 05:54:06;;;;;;;0.85;0.85;;;6.30;99.90;;;;;;5054938;28;20209;-77
2021/04/17 05:56:32;;;;;;;0.70;0.70;;;6.40;99.90;;;;;;5054768;28;20191;-77
2021/04/17 05:58:59;;;;;;;0.40;0.40;;;6.50;99.90;;;;;;5054845;28;20199;-77
2021/04/17 06:01:24;;;;;;;0.50;0.50;;;6.50;99.90;;;;;;5054758;28;20195;-77
2021/04/17 06:03:50;;;;;;;0.20;0.20;;;6.60;99.90;;;;;;5054628;28;20206;-77
2021/04/17 06:06:18;;;;;;;0.50;0.50;;;6.60;99.90;;;;;;5054459;28;20211;-77
2021/04/17 06:08:44;;;;;;;0.45;0.45;;;6.60;99.90;;;;;;5054644;28;20178;-77
2021/04/17 06:11:10;;;;;;;0.73;0.73;;;6.80;99.90;;;;;;5054478;28;20538;-77
2021/04/17 06:13:36;;;;;;;0.63;0.45;;;6.70;99.90;;;;;;5053261;28;20163;-79
2021/04/17 06:16:05;;;;;;;0.40;0.40;;;6.70;99.90;;;;;;5052856;28;20186;-75
2021/04/17 06:18:31;;;;;;;1.25;1.15;;;6.60;99.90;;;;;;5054041;28;20657;-76
2021/04/17 06:20:57;;;;;;;0.47;0.47;;;6.90;99.90;;;;;;5054243;28;20212;-77
2021/04/17 06:23:22;;;;;;;0.22;0.22;;;6.90;99.90;;;;;;5054195;28;20246;-76
2021/04/17 06:25:48;;;;;;;0.32;0.32;;;6.80;99.90;;;;;;5054056;28;20186;-80
2021/04/17 06:28:14;;;;;;;0.98;0.77;;;6.70;99.90;;;;;;5052943;28;20171;-76
2021/04/17 06:30:39;;;;;;;0.75;0.70;;;6.70;99.90;;;;;;5054076;28;20221;-76
2021/04/17 06:33:05;;;;;;;3.75;0.85;;;6.50;99.90;;;;;;5054099;28;20500;-77
2021/04/17 06:35:31;;;;;;;0.73;0.73;;;6.30;99.90;;;;;;5052752;28;20531;-77
2021/04/17 06:37:57;;;;;;;6.00;1.42;;;6.40;99.90;;;;;;5053916;28;20183;-78
2021/04/17 06:40:23;;;;;;;0.40;0.40;;;6.80;99.90;;;;;;5052530;28;20171;-77
2021/04/17 06:42:52;;;;;;;0.20;0.20;;;7.00;99.90;;;;;;5053959;28;20162;-78
2021/04/17 06:45:21;;;;;;;0.60;0.60;;;7.10;99.90;;;;;;5054045;28;20162;-76
2021/04/17 06:47:47;;;;;;;1.15;1.05;;;7.20;99.90;;;;;;5053515;28;20192;-78
2021/04/17 06:50:13;;;;;;;1.20;1.13;;;7.00;99.90;;;;;;5053994;28;20697;-77
2021/04/17 06:52:40;;;;;;;0.40;0.40;;;7.10;99.90;;;;;;5053813;28;20164;-77
2021/04/17 06:55:09;;;;;;;4.10;1.00;;;7.10;99.90;;;;;;5053716;28;20200;-80
2021/04/17 06:57:35;;;;;;;0.50;0.50;;;7.20;99.90;;;;;;5053622;28;20213;-77
2021/04/17 07:00:05;;;;;;;0.45;0.45;;;7.10;99.90;;;;;;5053248;28;20194;-76
2021/04/17 07:02:31;;;;;;;0.20;0.20;;;7.20;99.90;;;;;;5053581;28;20155;-78
2021/04/17 07:04:57;;;;;;;2.38;1.15;;;7.40;99.90;;;;;;5047161;28;20219;-76
2021/04/17 07:07:23;;;;;;;1.10;0.98;;;7.20;99.90;;;;;;5034955;28;20238;-77
2021/04/17 07:09:51;;;;;;;0.20;0.20;;;7.20;99.90;;;;;;5031994;28;20164;-76
2021/04/17 07:12:17;;;;;;;0.73;0.73;;;7.10;99.90;;;;;;5048962;28;20173;-76
2021/04/17 07:14:50;;;;;;;9.65;1.20;;;6.90;99.90;;;;;;5051005;28;20167;-77
2021/04/17 07:17:16;;;;;;;0.77;0.77;;;7.00;99.90;;;;;;5052550;28;20692;-77
2021/04/17 07:20:06;;;;;;;1.15;0.80;;;7.00;99.90;;;;;;5052129;28;20174;-77
2021/04/17 07:22:38;;;;;;;0.85;0.85;;;7.00;99.90;;;;;;5052297;28;20208;-77
2021/04/17 07:25:07;;;;;;;2.65;1.50;;;7.20;99.90;;;;;;5052152;28;20171;-77
2021/04/17 07:27:35;;;;;;;1.30;0.90;;;7.20;99.90;;;;;;5053036;28;20197;-76
2021/04/17 07:30:07;;;;;;;0.20;0.20;;;7.30;99.90;;;;;;5071792;28;20649;-76
2021/04/17 07:32:33;;;;;;;0.50;0.50;;;7.40;99.90;;;;;;5071803;28;20175;-76
2021/04/17 07:35:07;;;;;;;0.80;0.80;;;7.20;99.90;;;;;;5058834;28;20257;-77
2021/04/17 07:37:34;;;;;;;0.52;0.50;;;7.20;99.90;;;;;;5031612;28;20666;-76
2021/04/17 07:40:18;;;;;;;0.50;0.50;;;7.50;99.90;;;;;;5031581;28;20178;-75
2021/04/17 07:42:56;;;;;;;0.45;0.45;;;7.70;99.90;;;;;;5032046;28;20250;-76
2021/04/17 07:45:30;;;;;;;0.63;0.63;;;7.60;99.90;;;;;;5030607;28;20174;-76
2021/04/17 07:48:00;;;;;;;0.47;0.47;;;7.60;99.90;;;;;;5031563;28;20198;-76
2021/04/17 07:50:33;;;;;;;0.30;0.30;;;7.70;99.90;;;;;;5031920;28;20171;-76
2021/04/17 07:52:59;;;;;;;0.60;0.60;;;8.00;99.90;;;;;;5031696;28;20187;-77
2021/04/17 07:55:31;;;;;;;1.33;0.73;;;8.10;99.90;;;;;;5031897;28;20155;-76
2021/04/17 07:57:58;;;;;;;0.45;0.45;;;8.00;99.90;;;;;;5031639;28;20202;-77
2021/04/17 08:00:26;;;;;;;0.55;0.55;;;8.10;99.90;;;;;;5034374;28;20170;-87
2021/04/17 08:02:54;;;;;;;0.95;0.95;;;8.20;99.90;;;;;;5036935;28;20297;-78
2021/04/17 08:05:24;;;;;;;10.15;1.23;;;8.40;99.90;;;;;;5036790;28;20211;-79
2021/04/17 08:07:51;;;;;;;0.20;0.20;;;8.60;99.90;;;;;;5034840;28;20635;-79
2021/04/17 08:10:19;;;;;;;0.85;0.50;;;8.60;99.90;;;;;;5035804;28;20623;-78
2021/04/17 08:12:46;;;;;;;1.27;1.17;;;8.60;99.90;;;;;;5032748;28;20172;-79
2021/04/17 08:15:14;;;;;;;1.58;1.48;;;8.50;99.90;;;;;;5036755;28;20175;-80
2021/04/17 08:17:49;;;;;;;1.02;1.00;;;8.80;99.90;;;;;;5036585;28;20203;-79
2021/04/17 08:20:16;;;;;;;2.60;1.27;;;8.80;99.90;;;;;;5035147;28;20611;-77
2021/04/17 08:22:44;;;;;;;0.35;0.35;;;8.80;99.90;;;;;;5052337;23;20174;-77
2021/04/17 08:25:11;;;;;;;0.20;0.20;;;9.00;99.90;;;;;;5018913;28;20180;-77
2021/04/17 08:27:37;;;;;;;0.43;0.43;;;9.20;99.90;;;;;;5054979;28;20738;-77
2021/04/17 08:30:09;;;;;;;17.33;1.00;;;9.20;99.90;;;;;;5056409;28;20234;-77
2021/04/17 08:32:39;;;;;;;1.48;0.70;;;9.30;99.90;;;;;;5056561;28;20159;-77
2021/04/17 08:35:19;;;;;;;0.80;0.80;;;9.40;99.90;;;;;;5056837;28;20228;-78
2021/04/17 08:37:54;;;;;;;1.40;1.30;;;9.30;99.90;;;;;;5041544;28;20298;-77
2021/04/17 08:40:38;;;;;;;0.30;0.30;;;9.40;99.90;;;;;;5056377;28;20262;-76
2021/04/17 08:43:07;;;;;;;0.75;0.75;;;9.70;99.90;;;;;;5056356;28;20155;-77
2021/04/17 08:45:34;;;;;;;0.40;0.40;;;9.70;99.90;;;;;;5058050;28;20212;-77
2021/04/17 08:48:02;;;;;;;0.85;0.85;;;9.70;99.90;;;;;;5056132;28;20205;-76
2021/04/17 08:50:31;;;;;;;3.45;0.95;;;9.90;99.90;;;;;;5056090;28;20167;-76
2021/04/17 08:53:02;;;;;;;0.22;0.22;;;9.80;99.90;;;;;;5056613;28;20174;-76
2021/04/17 08:55:49;;;;;;;0.70;0.70;;;9.80;99.90;;;;;;5056279;28;20582;-77
2021/04/17 08:58:19;;;;;;;0.85;0.85;;;9.90;99.90;;;;;;5055828;28;20194;-76
2021/04/17 09:00:50;;;;;;;0.95;0.40;;;10.10;99.90;;;;;;5055940;28;20167;-77
2021/04/17 09:03:35;;;;;;;0.77;0.75;;;10.00;99.90;;;;;;5055986;28;20174;-76
2021/04/17 09:06:01;;;;;;;1.10;0.55;;;10.20;99.90;;;;;;5037930;28;20658;-76
2021/04/17 09:08:27;;;;;;;1.17;1.10;;;10.30;99.90;;;;;;5055844;28;20198;-77
2021/04/17 09:10:54;;;;;;;0.40;0.40;;;10.40;99.90;;;;;;5055842;28;20175;-76
2021/04/17 09:13:25;;;;;;;0.88;0.88;;;10.60;99.90;;;;;;5055735;28;20178;-76
2021/04/17 09:16:00;;;;;;;1.10;0.52;;;10.70;99.90;;;;;;5055577;28;20548;-75
2021/04/17 09:18:37;;;;;;;0.40;0.40;;;10.80;99.90;;;;;;5055658;28;20273;-76
2021/04/17 09:21:14;;;;;;;0.90;0.90;;;10.80;99.90;;;;;;5055771;28;20175;-77
2021/04/17 09:23:52;;;;;;;0.50;0.50;;;10.60;99.90;;;;;;5055553;28;20224;-76
2021/04/17 09:26:29;;;;;;;0.63;0.63;;;10.80;99.90;;;;;;5055384;28;20179;-76
2021/04/17 09:28:57;;;;;;;0.38;0.38;;;10.90;99.90;;;;;;5055658;28;20694;-76
2021/04/17 09:31:23;;;;;;;0.30;0.30;;;11.10;99.90;;;;;;5055397;28;20566;-76
2021/04/17 09:33:58;;;;;;;0.98;0.95;;;11.20;99.90;;;;;;5055249;28;20166;-80
2021/04/17 09:36:24;;;;;;;0.22;0.22;;;11.50;99.90;;;;;;5055692;28;20202;-77
2021/04/17 09:38:49;;;;;;;0.70;0.70;;;11.60;99.90;;;;;;5055428;28;20242;-78
2021/04/17 09:41:15;;;;;;;1.08;1.00;;;11.70;99.90;;;;;;5053460;28;20175;-77
2021/04/17 09:43:41;;;;;;;1.60;0.57;;;11.90;99.90;;;;;;5055182;28;20242;-78
2021/04/17 09:46:18;;;;;;;1.00;1.00;;;11.90;99.90;;;;;;5037615;28;20237;-77
2021/04/17 09:48:45;;;;;;;0.52;0.50;;;11.80;99.90;;;;;;5055514;28;20158;-77
2021/04/17 09:51:21;;;;;;;0.55;0.55;;;11.90;99.90;;;;;;5056594;28;20236;-77
2021/04/17 09:53:48;;;;;;;0.90;0.50;;;11.80;99.90;;;;;;5077003;28;20154;-76
2021/04/17 09:56:29;;;;;;;0.55;0.55;;;12.00;99.90;;;;;;5058929;28;20201;-77
2021/04/17 09:58:57;;;;;;;0.98;0.88;;;12.00;99.90;;;;;;5074272;28;20195;-77
2021/04/17 10:01:22;;;;;;;0.93;0.93;;;12.10;99.90;;;;;;5054588;28;20214;-78
2021/04/17 10:04:02;;;;;;;0.47;0.47;;;12.00;99.90;;;;;;5055200;28;20198;-77
2021/04/17 10:06:28;;;;;;;0.77;0.77;;;12.10;99.90;;;;;;5054930;28;20191;-78
2021/04/17 10:08:55;;;;;;;0.40;0.40;;;12.10;99.90;;;;;;5054960;28;20156;-77
2021/04/17 10:11:27;;;;;;;3.30;1.00;;;12.30;99.90;;;;;;5054918;28;20163;-77
2021/04/17 10:13:53;;;;;;;0.85;0.63;;;12.40;99.90;;;;;;5053284;28;20330;-77
2021/04/17 10:16:33;;;;;;;0.50;0.50;;;12.30;99.90;;;;;;5054086;28;20244;-76
2021/04/17 10:19:08;;;;;;;0.68;0.45;;;12.20;99.90;;;;;;5055071;28;20502;-77
2021/04/17 10:21:35;;;;;;;0.95;0.55;;;12.30;99.90;;;;;;5054472;28;20233;-76
2021/04/17 10:24:22;;;;;;;1.20;1.10;;;12.40;99.90;;;;;;5053540;28;20210;-76
2021/04/17 10:26:59;;;;;;;2.72;0.47;;;12.20;99.90;;;;;;5042561;28;20321;-76
2021/04/17 10:29:41;;;;;;;0.57;0.57;;;12.30;99.90;;;;;;5054701;28;20159;-76
2021/04/17 10:32:26;;;;;;;1.63;0.55;;;12.30;99.90;;;;;;5053121;28;20175;-84
2021/04/17 10:35:00;;;;;;;0.20;0.20;;;12.10;99.90;;;;;;5054526;28;20163;-78
2021/04/17 10:37:26;;;;;;;15.13;0.88;;;11.80;99.90;;;;;;5054302;28;20196;-78
2021/04/17 10:40:09;;;;;;;0.60;0.60;;;11.90;99.90;;;;;;5054340;28;20280;-77
2021/04/17 10:43:00;;;;;;;0.47;0.47;;;12.10;99.90;;;;;;5054431;28;20635;-77
2021/04/17 10:45:29;;;;;;;0.22;0.22;;;12.20;99.90;;;;;;5036303;28;20209;-77
2021/04/17 10:48:17;;;;;;;5.40;0.52;;;12.30;99.90;;;;;;5053795;28;20270;-77
2021/04/17 10:51:07;;;;;;;0.40;0.40;;;12.20;99.90;;;;;;5054244;28;20167;-76
2021/04/17 10:53:35;;;;;;;0.40;0.40;;;12.20;99.90;;;;;;5054500;28;20194;-77
2021/04/17 10:56:21;;;;;;;0.50;0.50;;;12.30;99.90;;;;;;5055155;28;20202;-77
2021/04/17 10:58:56;;;;;;;3.38;0.70;;;12.20;99.90;;;;;;5054323;28;20191;-78
2021/04/17 11:01:24;;;;;;;0.80;0.47;;;12.00;99.90;;;;;;5035639;28;20224;-76
2021/04/17 11:03:57;;;;;;;0.68;0.68;;;11.90;99.90;;;;;;5054300;28;20190;-75
2021/04/17 11:06:23;;;;;;;0.50;0.50;;;12.10;99.90;;;;;;5053334;28;20175;-82
2021/04/17 11:08:51;;;;;;;0.55;0.55;;;12.30;99.40;;;;;;5053886;28;20526;-76
2021/04/17 11:11:17;;;;;;;1.85;0.75;;;12.20;99.90;;;;;;5035747;28;20225;-76
2021/04/17 11:13:44;;;;;;;0.40;0.40;;;12.40;99.90;;;;;;5053775;28;20164;-76
2021/04/17 11:16:13;;;;;;;0.20;0.20;;;12.60;99.20;;;;;;5053715;28;20194;-75
2021/04/17 11:18:44;;;;;;;0.40;0.40;;;12.70;98.60;;;;;;5035299;28;20562;-76
2021/04/17 11:21:12;;;;;;;0.35;0.35;;;12.50;98.30;;;;;;5053710;28;20242;-77
2021/04/17 11:23:47;;;;;;;3.13;0.77;;;12.40;98.50;;;;;;5053613;28;20215;-75
2021/04/17 11:26:21;;;;;;;0.40;0.40;;;12.40;99.30;;;;;;5052879;28;20188;-77
2021/04/17 11:28:53;;;;;;;0.80;0.55;;;12.30;98.40;;;;;;5053283;28;20234;-77
2021/04/17 11:31:22;;;;;;;3.72;0.85;;;12.40;98.30;;;;;;5035427;28;20163;-77
2021/04/17 11:33:49;;;;;;;0.63;0.63;;;12.60;98.90;;;;;;5052880;28;20225;-77
2021/04/17 11:36:15;;;;;;;1.00;0.98;;;13.00;97.90;;;;;;5052577;28;20190;-77
2021/04/17 11:38:40;;;;;;;0.80;0.80;;;12.90;98.00;;;;;;5034775;28;20202;-77
2021/04/17 11:41:06;;;;;;;0.30;0.30;;;12.90;97.50;;;;;;5052790;28;20163;-78
2021/04/17 11:43:32;;;;;;;1.65;0.80;;;12.80;98.20;;;;;;5052822;28;20320;-77
2021/04/17 11:45:58;;;;;;;0.63;0.63;;;12.80;97.90;;;;;;5052685;28;20186;-77
2021/04/17 11:48:24;;;;;;;0.50;0.50;;;13.10;97.00;;;;;;5052688;28;20174;-78
2021/04/17 11:50:50;;;;;;;3.50;1.15;;;13.20;97.00;;;;;;5052871;28;20214;-78
2021/04/17 11:53:18;;;;;;;0.22;0.22;;;13.30;96.50;;;;;;5052953;28;20630;-78
2021/04/17 11:55:44;;;;;;;0.65;0.65;;;13.30;95.80;;;;;;5052700;28;20151;-78
2021/04/17 11:58:09;;;;;;;0.40;0.40;;;13.40;95.90;;;;;;5052850;28;20333;-78
2021/04/17 12:00:35;;;;;;;0.20;0.20;;;13.40;96.30;;;;;;5053297;28;20171;-77
2021/04/17 12:03:01;;;;;;;3.13;0.35;;;13.40;96.00;;;;;;5053171;28;20152;-78
2021/04/17 12:05:27;;;;;;;1.00;0.82;;;13.30;96.40;;;;;;5053228;28;20171;-78
2021/04/17 12:07:53;;;;;;;0.35;0.35;;;13.10;96.30;;;;;;5052930;28;20179;-77
2021/04/17 12:10:20;;;;;;;0.40;0.40;;;13.20;95.80;;;;;;5053251;28;20158;-78
2021/04/17 12:12:46;;;;;;;1.95;0.55;;;13.00;96.50;;;;;;5053397;28;20659;-78
2021/04/17 12:15:13;;;;;;;0.43;0.43;;;13.00;96.30;;;;;;5035441;28;20163;-78
2021/04/17 12:17:39;;;;;;;0.63;0.55;;;12.60;97.30;;;;;;5053499;28;20179;-78
2021/04/17 12:20:05;;;;;;;0.50;0.50;;;12.80;96.70;;;;;;5052968;28;20170;-78
2021/04/17 12:22:31;;;;;;;0.52;0.52;;;12.90;97.30;;;;;;5035034;28;20171;-77
2021/04/17 12:24:57;;;;;;;3.63;1.02;;;13.00;97.20;;;;;;5036213;28;20171;-75
2021/04/17 12:27:23;;;;;;;0.30;0.30;;;13.10;97.60;;;;;;5058307;28;20663;-78
2021/04/17 12:29:50;;;;;;;0.47;0.40;;;12.90;95.90;;;;;;5039781;28;20202;-77
2021/04/17 12:32:16;;;;;;;0.63;0.57;;;12.90;95.90;;;;;;5057938;28;20645;-78
2021/04/17 12:34:41;;;;;;;0.20;0.20;;;13.20;96.10;;;;;;5071322;28;20195;-79
2021/04/17 12:37:07;;;;;;;0.30;0.30;;;13.20;96.00;;;;;;5071932;28;20666;-79
2021/04/17 12:39:33;;;;;;;0.43;0.43;;;13.40;94.90;;;;;;5064128;28;20195;-78
2021/04/17 12:42:00;;;;;;;0.30;0.30;;;13.40;94.50;;;;;;5058282;28;20163;-77
2021/04/17 12:44:26;;;;;;;0.55;0.55;;;13.50;94.50;;;;;;5055599;28;20163;-76
2021/04/17 12:46:52;;;;;;;0.95;0.88;;;13.80;93.80;;;;;;5054359;28;20197;-77
2021/04/17 12:49:18;;;;;;;0.30;0.30;;;13.80;94.70;;;;;;5056439;28;20152;-77
2021/04/17 12:51:43;;;;;;;0.65;0.65;;;13.70;94.00;;;;;;5056181;28;20174;-75
2021/04/17 12:54:09;;;;;;;0.30;0.30;;;13.40;93.10;;;;;;5055859;28;20238;-78
2021/04/17 12:56:35;;;;;;;0.55;0.55;;;13.20;93.80;;;;;;5037917;28;20694;-77
2021/04/17 12:59:00;;;;;;;0.38;0.30;;;13.10;93.40;;;;;;5055861;28;20195;-77